Terminal Aerodrome Forecast
Issued by NWS Cleveland, OH

Home | Current Version | Previous Version | Text Only | Print | Product List | Glossary On
Versions: 1 2 3 4 5 6 7 8 9 10 11 12 13 14 15 16 17 18 19 20 21 22 23
120
FTUS41 KCLE 231738 AAC
TAFERI
TAF AMD
KERI 231738Z 2318/2418 24010KT P6SM VCSH OVC025
     FM232200 25015G25KT P6SM VCSH OVC015
     FM240300 28015G25KT P6SM OVC010
     FM240600 29012KT P6SM -SHSN OVC015
     FM241400 28012KT P6SM VCSH OVC015=

USA.gov is the U.S. government's official web portal to all federal, state and local government web resources and services.